Iverson, Texas
Current Conditions -  °F | °C
As of 12:15 AM on Thursday 23 Oct 2014 (Local Time) from KINJ Reporting Station
Clear Clear  
Wind Chill: 69°   Ceiling: Unl
Heat Index: 69°   Visibility: 10mi
Dew Point: 55°   Wind: 9mph
Humidity: 61%   Direction: 100°E
Pressure: 30.1"   Gusts: NA
Location:  32.1748°N, 96.9849°W
Report Text: KINJ 230515Z AUTO 10008KT 10SM CLR 21/13 A3010 RMK AO2 T02050127
Loading
Personal Weather Stations






























Interactive Weather Map
Tropical Storm Tracking
New forecast layout! Learn more

10-Day Weather Forecast

Advertisements
Track Severe Weather on mobile